My Profile
  1. Member Settings
  2. My Devices
  3. Sign Out
        More Settings
      Elev 2205 ft, 20.736 °N 74.156 °E

      Bhuyane, IN

      Summary

      Temperature (°F)MaxAverageMin
      Max Temperature7765.3450
      Avg Temperature7762.7250
      Min Temperature7760.150
      Precipitation (in)MaxAverageMinSum
      Precipitation0000
      Dew Point (°F)MaxAverageMin
      Dew Point6655.3644
      Wind (mph)MaxAverageMin
      Wind000
      Gust Wind---
      Sea Level Pressure (in)MaxAverageMin
      Sea Level Pressure---

      Daily Observations

      DateTemp High/LowDew Pt High/LowHumidityWindMax WindWind GustPressurePrecip.Condition
      1/1/2022 71 °F / 62 °F 59 °F / 58 °F 78 % 0 mph - - 0 in
      1/2/2022 71 °F / 62 °F 59 °F / 58 °F 78 % 0 mph - - 0 in
      1/3/2022 71 °F / 71 °F 59 °F / 59 °F 66 % 0 mph - - 0 in
      1/4/2022 62 °F / 62 °F 60 °F / 60 °F 94 % 0 mph - - 0 in
      1/5/2022 71 °F / 71 °F 59 °F / 59 °F 66 % 0 mph - - 0 in
      1/6/2022 63 °F / 63 °F 61 °F / 61 °F 94 % 0 mph - - 0 in
      1/7/2022 71 °F / 71 °F 59 °F / 59 °F 66 % 0 mph - - 0 in
      1/8/2022 71 °F / 64 °F 62 °F / 59 °F 80 % 0 mph - - 0 in
      1/9/2022 64 °F / 64 °F 62 °F / 62 °F 94 % 0 mph - - 0 in
      1/10/2022 72 °F / 52 °F 55 °F / 48 °F 72 % 0 mph - - 0 in
      1/11/2022 57 °F / 57 °F 54 °F / 54 °F 89 % 0 mph - - 0 in
      1/12/2022 59 °F / 59 °F 56 °F / 56 °F 91 % 0 mph - - 0 in
      1/13/2022 72 °F / 57 °F 55 °F / 53 °F 71 % 0 mph - - 0 in
      1/14/2022 72 °F / 57 °F 55 °F / 53 °F 71 % 0 mph - - 0 in
      1/15/2022 72 °F / 58 °F 56 °F / 55 °F 76 % 0 mph - - 0 in
      1/16/2022 58 °F / 58 °F 56 °F / 56 °F 96 % 0 mph - - 0 in
      1/17/2022 72 °F / 58 °F 56 °F / 55 °F 74 % 0 mph - - 0 in
      1/18/2022 72 °F / 72 °F 55 °F / 55 °F 55 % 0 mph - - 0 in
      1/19/2022 77 °F / 77 °F 66 °F / 66 °F 68 % 0 mph - - 0 in
      1/20/2022 77 °F / 59 °F 66 °F / 54 °F 76 % 0 mph - - 0 in
      1/21/2022 77 °F / 59 °F 66 °F / 54 °F 76 % 0 mph - - 0 in
      1/22/2022 64 °F / 64 °F 61 °F / 61 °F 90 % 0 mph - - 0 in
      1/23/2022 77 °F / 64 °F 66 °F / 61 °F 79 % 0 mph - - 0 in
      1/24/2022 51 °F / 51 °F 44 °F / 44 °F 77 % 0 mph - - 0 in
      1/25/2022 50 °F / 50 °F 44 °F / 44 °F 82 % 0 mph - - 0 in
      1/27/2022 51 °F / 51 °F 46 °F / 46 °F 82 % 0 mph - - 0 in
      1/28/2022 50 °F / 50 °F 44 °F / 44 °F 81 % 0 mph - - 0 in
      1/29/2022 50 °F / 50 °F 44 °F / 44 °F 81 % 0 mph - - 0 in
      1/30/2022 50 °F / 50 °F 44 °F / 44 °F 81 % 0 mph - - 0 in
      essentialaccessibility.com
      We recognize our responsibility to use data and technology for good. We may use or share your data with our data vendors. Take control of your data.
      Glossary